Sharon, Missouri
Current Conditions -  °F | °C
As of 3:15 AM on Friday 31 Oct 2014 (Local Time) from KVER Reporting Station
Overcast Overcast  
Wind Chill: 45°   Ceiling: 8000
Heat Index: 49°   Visibility: 10mi
Dew Point: 41°   Wind: 10mph
Humidity: 74%   Direction: 340°NNW
Pressure: 30.18"   Gusts: NA
Location:  39.2023°N, 93.0277°W
Report Text: KVER 310815Z AUTO 34009KT 10SM SCT065 OVC080 10/05 A3018 RMK AO2 T00970052
Loading
Personal Weather Stations






























Interactive Weather Map
Tropical Storm Tracking
New forecast layout! Learn more

10-Day Weather Forecast

Advertisements
Track Severe Weather on mobile